Time;durP1;ratioP1;P1;durP2;ratioP2;P2;SDS_P1;SDS_P2;PMS_P1;PMS_P2;Temp;Humidity;BMP_temperature;BMP_pressure;BME280_temperature;BME280_humidity;BME280_pressure;Samples;Min_cycle;Max_cycle;Signal;HPM_P1;HPM_P2
2021/11/02 00:00:10;;;;;;;8.57;1.85;;;;;;;8.21;84.12;99302.28;683013;28;3560;-50
2021/11/02 00:00:35;;;;;;;6.18;1.85;;;;;;;8.18;84.06;99292.78;683943;28;1397;-54
2021/11/02 00:00:55;;;;;;;5.78;1.98;;;;;;;8.17;83.69;99295.44;684169;28;945;-53
2021/11/02 00:01:17;;;;;;;6.30;1.92;;;;;;;8.15;84.03;99297.19;682960;28;4980;-53
2021/11/02 00:01:37;;;;;;;6.72;2.08;;;;;;;8.13;84.05;99305.00;683670;28;1169;-52
2021/11/02 00:01:58;;;;;;;6.25;1.85;;;;;;;8.12;85.60;99297.25;682291;28;1084;-54
2021/11/02 00:02:18;;;;;;;7.05;2.00;;;;;;;8.10;84.71;99302.47;684288;28;1064;-53
2021/11/02 00:02:43;;;;;;;7.00;2.30;;;;;;;8.10;85.04;99299.00;682937;28;1123;-50
2021/11/02 00:03:06;;;;;;;6.70;2.15;;;;;;;8.06;85.85;99293.00;682085;28;3698;-51
2021/11/02 00:03:26;;;;;;;7.10;1.80;;;;;;;8.05;85.58;99301.69;683963;28;1253;-51
2021/11/02 00:03:47;;;;;;;5.63;1.80;;;;;;;8.05;84.72;99296.47;684188;28;1621;-52
2021/11/02 00:04:08;;;;;;;5.85;1.80;;;;;;;8.07;85.93;99301.66;684840;28;1044;-51
2021/11/02 00:04:28;;;;;;;8.35;2.10;;;;;;;8.15;85.54;99298.03;681126;28;4569;-53
2021/11/02 00:04:48;;;;;;;6.03;1.90;;;;;;;8.21;85.67;99291.88;684130;28;1154;-50
2021/11/02 00:05:09;;;;;;;5.90;1.93;;;;;;;8.22;84.59;99305.75;684229;28;1210;-53
2021/11/02 00:05:30;;;;;;;7.10;1.90;;;;;;;8.27;85.05;99302.19;684670;28;1146;-52
2021/11/02 00:05:50;;;;;;;6.78;2.20;;;;;;;8.38;84.34;99302.00;682997;28;3439;-51
2021/11/02 00:06:10;;;;;;;8.07;2.07;;;;;;;8.41;84.44;99294.13;684166;28;1226;-53
2021/11/02 00:06:33;;;;;;;7.38;1.90;;;;;;;8.38;83.70;99299.41;683952;28;1432;-53
2021/11/02 00:06:54;;;;;;;5.95;1.75;;;;;;;8.35;84.67;99302.91;684540;28;1199;-51
2021/11/02 00:07:14;;;;;;;5.28;1.80;;;;;;;8.30;85.01;99293.47;684398;28;4776;-54
2021/11/02 00:07:35;;;;;;;8.45;2.53;;;;;;;8.30;83.89;99290.84;684233;28;1364;-51
2021/11/02 00:07:55;;;;;;;7.63;1.80;;;;;;;8.27;83.38;99301.34;684440;28;985;-53
2021/11/02 00:08:16;;;;;;;6.65;2.03;;;;;;;8.23;84.90;99297.06;684060;28;1052;-54
2021/11/02 00:08:37;;;;;;;5.47;1.83;;;;;;;8.19;85.23;99299.69;683591;28;1328;-49
2021/11/02 00:08:57;;;;;;;5.38;1.77;;;;;;;8.17;85.10;99304.09;683352;28;3566;-51
2021/11/02 00:09:21;;;;;;;6.05;1.98;;;;;;;8.24;85.15;99299.63;683235;28;1133;-53
2021/11/02 00:09:45;;;;;;;5.50;1.90;;;;;;;8.23;84.15;99295.31;680627;28;1591;-51
2021/11/02 00:10:07;;;;;;;6.15;1.90;;;;;;;8.19;85.08;99298.84;682816;28;1032;-55
2021/11/02 00:10:29;;;;;;;4.63;1.90;;;;;;;8.17;85.81;99308.44;686175;28;4661;-54
2021/11/02 00:10:49;;;;;;;5.80;1.95;;;;;;;8.16;84.91;99304.09;685761;28;1946;-51
2021/11/02 00:11:10;;;;;;;7.80;1.88;;;;;;;8.21;84.75;99304.03;686251;28;1105;-52
2021/11/02 00:11:32;;;;;;;6.33;1.70;;;;;;;8.21;85.49;99301.41;681302;28;1008;-51
2021/11/02 00:11:53;;;;;;;6.50;1.95;;;;;;;8.23;84.34;99302.28;680194;28;3437;-51
2021/11/02 00:12:14;;;;;;;4.77;1.90;;;;;;;8.22;84.13;99309.19;682224;28;1285;-51
2021/11/02 00:12:34;;;;;;;4.68;1.90;;;;;;;8.20;84.12;99308.38;680772;28;1476;-51
2021/11/02 00:12:56;;;;;;;5.03;1.77;;;;;;;8.17;84.36;99303.22;678566;29;1144;-54
2021/11/02 00:13:18;;;;;;;5.85;1.73;;;;;;;8.23;84.34;99299.66;675904;28;4630;-51
2021/11/02 00:13:42;;;;;;;5.70;1.83;;;;;;;8.22;84.28;99304.00;681331;28;1183;-51
2021/11/02 00:14:07;;;;;;;6.93;1.90;;;;;;;8.20;84.29;99305.78;677884;28;1264;-51
2021/11/02 00:14:29;;;;;;;6.18;1.98;;;;;;;8.18;84.26;99298.00;675890;29;1195;-53
2021/11/02 00:14:51;;;;;;;6.03;1.90;;;;;;;8.16;83.98;99307.56;676232;29;3109;-53
2021/11/02 00:15:12;;;;;;;7.03;1.92;;;;;;;8.15;84.05;99299.78;681347;28;1169;-50
2021/11/02 00:15:34;;;;;;;7.10;1.90;;;;;;;8.14;83.82;99301.53;678664;29;1441;-53
2021/11/02 00:15:58;;;;;;;5.07;1.80;;;;;;;8.13;85.02;99305.00;679330;28;1053;-53
2021/11/02 00:16:23;;;;;;;5.07;1.70;;;;;;;8.12;83.63;99305.91;683066;28;4588;-52
2021/11/02 00:16:45;;;;;;;6.18;1.88;;;;;;;8.13;84.07;99307.63;683344;28;1348;-54
2021/11/02 00:17:14;;;;;;;6.07;1.90;;;;;;;8.11;84.93;99312.00;684193;28;1162;-54
2021/11/02 00:17:38;;;;;;;5.35;1.80;;;;;;;8.15;85.77;99307.59;684107;28;3741;-50
2021/11/02 00:18:03;;;;;;;9.20;2.55;;;;;;;8.25;85.35;99303.97;683910;28;2053;-53
2021/11/02 00:18:25;;;;;;;7.75;2.20;;;;;;;8.27;84.32;99296.13;684451;28;1161;-50
2021/11/02 00:18:48;;;;;;;6.20;2.38;;;;;;;8.24;84.12;99298.75;683579;28;1128;-55
2021/11/02 00:19:08;;;;;;;7.00;1.83;;;;;;;8.21;84.04;99311.84;683662;28;1155;-53
2021/11/02 00:19:29;;;;;;;5.25;1.80;;;;;;;8.20;84.38;99297.97;683176;28;4580;-51
2021/11/02 00:19:54;;;;;;;5.72;1.73;;;;;;;8.19;84.65;99315.31;683589;28;1527;-53
2021/11/02 00:20:15;;;;;;;6.45;2.00;;;;;;;8.19;83.93;99307.50;684142;28;1068;-50
2021/11/02 00:20:38;;;;;;;6.38;2.05;;;;;;;8.18;84.28;99305.81;684061;28;1297;-51
2021/11/02 00:21:01;;;;;;;6.15;2.00;;;;;;;8.17;84.16;99306.69;684005;28;1014;-53
2021/11/02 00:21:22;;;;;;;6.25;2.10;;;;;;;8.16;83.82;99309.31;683862;28;1302;-51
2021/11/02 00:21:45;;;;;;;6.25;1.85;;;;;;;8.15;84.12;99308.44;683816;28;1035;-53
2021/11/02 00:22:14;;;;;;;7.30;1.85;;;;;;;8.14;83.83;99311.06;685203;28;1839;-51
2021/11/02 00:22:36;;;;;;;5.25;1.90;;;;;;;8.13;85.15;99310.22;682545;28;5046;-53
2021/11/02 00:22:58;;;;;;;5.63;2.08;;;;;;;8.13;84.12;99305.00;684007;28;1267;-50
2021/11/02 00:23:19;;;;;;;4.82;1.98;;;;;;;8.12;84.21;99305.91;683286;28;1052;-52
2021/11/02 00:23:39;;;;;;;5.72;2.10;;;;;;;8.13;83.63;99305.00;682616;28;1056;-50
2021/11/02 00:24:50;;;;;;;5.68;1.85;;;;;;;8.21;84.83;99306.63;682475;28;1389;-50
2021/11/02 00:25:11;;;;;;;6.25;1.98;;;;;;;8.21;84.83;99306.63;683908;28;1096;-55
2021/11/02 00:25:33;;;;;;;5.00;1.88;;;;;;;8.18;84.25;99305.81;682493;28;4747;-52
2021/11/02 00:25:54;;;;;;;5.70;1.83;;;;;;;8.16;84.90;99304.97;683390;28;1601;-51
2021/11/02 00:26:14;;;;;;;5.47;1.87;;;;;;;8.16;85.36;99304.97;683154;28;1057;-54
2021/11/02 00:26:35;;;;;;;4.90;1.80;;;;;;;8.22;85.13;99308.34;682712;28;3481;-50
2021/11/02 00:26:55;;;;;;;4.47;2.00;;;;;;;8.19;84.79;99299.69;682990;28;1286;-51
2021/11/02 00:27:16;;;;;;;4.77;1.97;;;;;;;8.18;85.20;99303.19;683682;28;1408;-55
2021/11/02 00:27:40;;;;;;;5.60;1.80;;;;;;;8.17;84.61;99303.22;684520;28;1082;-50
2021/11/02 00:28:03;;;;;;;4.82;1.95;;;;;;;8.16;84.37;99298.91;684405;28;2109;-52
2021/11/02 00:28:24;;;;;;;4.47;1.70;;;;;;;8.13;85.15;99305.00;682216;28;4486;-51
2021/11/02 00:28:44;;;;;;;4.93;1.87;;;;;;;8.12;85.09;99303.28;682648;28;1531;-54
2021/11/02 00:29:06;;;;;;;5.15;1.90;;;;;;;8.12;84.46;99307.66;680171;28;1230;-51
2021/11/02 00:29:26;;;;;;;6.45;2.00;;;;;;;8.11;83.83;99300.72;680044;28;1250;-52
2021/11/02 00:29:47;;;;;;;6.30;1.88;;;;;;;8.12;84.31;99308.50;682279;28;1127;-51
2021/11/02 00:30:12;;;;;;;6.10;1.80;;;;;;;8.12;84.02;99307.66;683856;28;1198;-51
2021/11/02 00:30:35;;;;;;;4.75;1.75;;;;;;;8.16;84.89;99304.09;680588;28;1953;-51
2021/11/02 00:30:55;;;;;;;6.07;1.93;;;;;;;8.27;83.83;99296.97;681416;28;2054;-52
2021/11/02 00:31:15;;;;;;;6.00;1.83;;;;;;;8.27;84.31;99296.13;682362;28;4540;-54
2021/11/02 00:31:39;;;;;;;6.80;1.70;;;;;;;8.25;83.22;99301.38;679558;28;1983;-52
2021/11/02 00:32:00;;;;;;;5.65;1.70;;;;;;;8.24;83.32;99301.34;680089;28;1193;-50
2021/11/02 00:32:21;;;;;;;5.15;1.73;;;;;;;8.28;83.92;99301.31;682097;28;1226;-54
2021/11/02 00:32:47;;;;;;;5.80;1.90;;;;;;;8.27;84.09;99299.56;679942;28;1198;-53
2021/11/02 00:33:07;;;;;;;5.43;2.00;;;;;;;8.26;83.64;99302.22;678222;29;1240;-53
2021/11/02 00:33:28;;;;;;;5.05;1.80;;;;;;;8.23;84.14;99300.50;680033;28;1077;-54
2021/11/02 00:33:48;;;;;;;4.32;1.77;;;;;;;8.23;84.77;99304.88;678498;29;1378;-51
2021/11/02 00:34:09;;;;;;;4.73;1.70;;;;;;;8.22;84.09;99297.94;678649;29;1235;-53
2021/11/02 00:34:29;;;;;;;5.18;1.88;;;;;;;8.19;84.37;99299.69;676313;28;4648;-50
2021/11/02 00:34:50;;;;;;;7.53;2.10;;;;;;;8.18;83.67;99303.19;676946;28;1364;-50
2021/11/02 00:35:11;;;;;;;7.13;1.80;;;;;;;8.17;83.70;99300.63;675971;29;1038;-50
2021/11/02 00:35:32;;;;;;;8.65;2.10;;;;;;;8.18;84.77;99304.94;676130;29;3611;-50
2021/11/02 00:35:53;;;;;;;8.33;2.27;;;;;;;8.24;84.75;99296.16;678442;28;3926;-50
2021/11/02 00:36:13;;;;;;;6.63;2.30;;;;;;;8.22;83.97;99296.19;678771;28;1016;-52
2021/11/02 00:36:33;;;;;;;8.55;2.30;;;;;;;8.21;83.89;99312.72;678915;28;1341;-50
2021/11/02 00:36:55;;;;;;;7.70;2.20;;;;;;;8.19;84.01;99297.09;680231;28;1076;-54
2021/11/02 00:37:15;;;;;;;7.35;2.10;;;;;;;8.18;83.63;99303.19;677291;28;4513;-53
2021/11/02 00:37:36;;;;;;;5.83;1.90;;;;;;;8.16;85.64;99307.56;675540;29;1227;-51
2021/11/02 00:37:56;;;;;;;6.03;1.70;;;;;;;8.16;85.19;99309.31;676600;28;1081;-52
2021/11/02 00:38:17;;;;;;;6.40;1.80;;;;;;;8.17;84.39;99306.69;676044;29;1783;-52
2021/11/02 00:38:37;;;;;;;6.53;1.83;;;;;;;8.17;84.97;99311.03;678465;28;3451;-53
2021/11/02 00:38:58;;;;;;;6.53;1.90;;;;;;;8.15;85.18;99308.44;681197;28;1647;-52
2021/11/02 00:39:19;;;;;;;7.40;1.80;;;;;;;8.13;85.60;99309.38;684378;28;1000;-50
2021/11/02 00:39:41;;;;;;;7.35;1.90;;;;;;;8.14;85.88;99306.75;684062;28;1297;-51
2021/11/02 00:40:02;;;;;;;7.32;1.90;;;;;;;8.23;85.63;99305.72;684232;28;1100;-50
2021/11/02 00:40:23;;;;;;;6.63;2.22;;;;;;;8.37;84.29;99307.25;683785;28;4520;-52
2021/11/02 00:40:45;;;;;;;6.47;1.80;;;;;;;8.35;84.06;99302.91;681439;28;1307;-53
2021/11/02 00:41:06;;;;;;;6.60;2.00;;;;;;;8.32;84.23;99305.56;678672;28;1115;-51
2021/11/02 00:41:26;;;;;;;6.23;2.00;;;;;;;8.29;84.45;99304.75;678797;29;3073;-54
2021/11/02 00:41:47;;;;;;;7.72;2.20;;;;;;;8.27;84.38;99306.53;677364;29;3750;-53
2021/11/02 00:42:08;;;;;;;8.23;2.05;;;;;;;8.25;84.18;99301.38;679263;28;1218;-53
2021/11/02 00:43:11;;;;;;;6.60;1.75;;;;;;;8.24;84.15;99301.34;679324;28;3612;-51
2021/11/02 00:43:13;;;;;;;7.97;2.00;;;;;;;8.19;84.88;99298.84;673639;29;2437;-54
2021/11/02 00:43:35;;;;;;;7.03;2.10;;;;;;;8.16;84.69;99298.91;677379;29;4968;-51
2021/11/02 00:43:56;;;;;;;6.60;1.80;;;;;;;8.15;84.03;99303.22;680909;28;1092;-53
2021/11/02 00:44:18;;;;;;;4.50;1.80;;;;;;;8.15;83.90;99305.84;681122;28;3167;-52
2021/11/02 00:44:43;;;;;;;5.93;2.13;;;;;;;8.16;83.29;99304.09;678522;28;3617;-51
2021/11/02 00:45:08;;;;;;;5.43;1.80;;;;;;;8.15;84.10;99304.97;679983;28;1188;-51
2021/11/02 00:45:33;;;;;;;4.75;1.73;;;;;;;8.15;84.88;99304.97;681027;28;1286;-54
2021/11/02 00:45:57;;;;;;;6.68;1.73;;;;;;;8.15;84.03;99303.22;681056;28;1135;-51
2021/11/02 00:46:26;;;;;;;5.32;1.80;;;;;;;8.14;84.08;99301.53;683297;28;5641;-51
2021/11/02 00:46:46;;;;;;;6.35;1.90;;;;;;;8.16;83.88;99304.09;683531;28;1253;-51
2021/11/02 00:47:07;;;;;;;6.37;1.93;;;;;;;8.15;83.94;99303.22;684257;28;1179;-53
2021/11/02 00:47:27;;;;;;;5.85;1.88;;;;;;;8.15;84.20;99303.22;683122;28;2413;-50
2021/11/02 00:47:51;;;;;;;6.27;1.90;;;;;;;8.15;84.03;99298.03;683841;28;1263;-51
2021/11/02 00:48:13;;;;;;;4.82;1.67;;;;;;;8.15;83.49;99310.19;682989;28;1118;-53
2021/11/02 00:48:34;;;;;;;5.97;1.90;;;;;;;8.15;83.54;99302.38;684085;28;1259;-54
2021/11/02 00:48:54;;;;;;;7.00;1.80;;;;;;;8.14;83.58;99306.75;683058;28;1282;-51
2021/11/02 00:49:18;;;;;;;6.17;1.80;;;;;;;8.14;84.01;99298.06;682857;28;5405;-53
2021/11/02 00:49:39;;;;;;;5.43;1.90;;;;;;;8.12;85.09;99298.09;683212;28;1274;-52
2021/11/02 00:50:01;;;;;;;6.03;1.60;;;;;;;8.15;84.78;99303.22;681296;28;1208;-50
2021/11/02 00:50:22;;;;;;;5.45;1.70;;;;;;;8.14;83.90;99306.75;681531;28;1901;-52
2021/11/02 00:50:44;;;;;;;6.50;2.00;;;;;;;8.14;84.86;99304.13;683014;28;3711;-54
2021/11/02 00:51:05;;;;;;;8.10;2.10;;;;;;;8.12;84.44;99300.69;683909;28;1379;-52
2021/11/02 00:51:27;;;;;;;7.32;1.80;;;;;;;8.11;85.13;99303.31;684409;28;1139;-51
2021/11/02 00:51:48;;;;;;;5.88;1.70;;;;;;;8.10;84.99;99302.47;683891;28;1257;-51
2021/11/02 00:52:08;;;;;;;6.63;2.13;;;;;;;8.11;84.29;99296.38;684376;28;1277;-53
2021/11/02 00:52:29;;;;;;;7.47;1.90;;;;;;;8.11;84.65;99300.72;683195;28;4629;-53
2021/11/02 00:52:50;;;;;;;5.75;1.70;;;;;;;8.11;83.28;99296.38;684211;28;1515;-54
2021/11/02 00:53:12;;;;;;;5.55;1.88;;;;;;;8.11;83.65;99304.19;683594;28;3143;-52
2021/11/02 00:53:33;;;;;;;5.10;1.88;;;;;;;8.11;84.93;99301.59;682345;28;3678;-51
2021/11/02 00:53:56;;;;;;;6.78;2.10;;;;;;;8.11;84.74;99304.19;682599;28;1397;-52
2021/11/02 00:54:16;;;;;;;5.97;1.73;;;;;;;8.11;84.56;99305.91;683887;28;1104;-51
2021/11/02 00:54:37;;;;;;;6.63;2.05;;;;;;;8.11;85.01;99300.72;683443;28;1222;-53
2021/11/02 00:54:57;;;;;;;5.17;1.70;;;;;;;8.11;85.26;99301.59;681248;28;1076;-52
2021/11/02 00:55:19;;;;;;;4.30;1.60;;;;;;;8.10;84.92;99302.47;678032;28;4376;-51
2021/11/02 00:55:40;;;;;;;6.28;1.77;;;;;;;8.09;86.65;99308.56;678055;28;1259;-54
2021/11/02 00:56:00;;;;;;;5.10;1.77;;;;;;;8.08;85.73;99306.81;678193;29;1469;-52
2021/11/02 00:56:21;;;;;;;4.60;1.60;;;;;;;8.08;86.27;99312.03;678795;28;3767;-51
2021/11/02 00:56:42;;;;;;;6.03;1.83;;;;;;;8.09;85.31;99311.16;677999;29;1100;-53
2021/11/02 00:57:02;;;;;;;5.03;1.80;;;;;;;8.09;84.01;99307.72;678799;28;1121;-52
2021/11/02 00:57:23;;;;;;;4.20;1.67;;;;;;;8.10;84.71;99307.69;682010;28;1277;-54
2021/11/02 00:57:43;;;;;;;5.25;1.80;;;;;;;8.13;84.83;99310.22;680125;28;1222;-53
2021/11/02 00:58:06;;;;;;;6.05;2.00;;;;;;;8.14;84.66;99308.47;681265;28;1211;-53
2021/11/02 00:58:26;;;;;;;5.70;1.73;;;;;;;8.14;85.14;99311.94;681336;28;4385;-54
2021/11/02 00:58:48;;;;;;;6.70;2.20;;;;;;;8.13;84.48;99309.38;680619;28;1433;-50
2021/11/02 00:59:10;;;;;;;7.45;2.30;;;;;;;8.12;84.53;99308.50;680903;28;3160;-53
2021/11/02 00:59:30;;;;;;;5.45;1.90;;;;;;;8.13;84.42;99315.44;681045;28;3803;-51
2021/11/02 00:59:51;;;;;;;6.28;1.63;;;;;;;8.13;84.44;99311.97;681678;28;1365;-53
2021/11/02 01:00:13;;;;;;;7.07;1.80;;;;;;;8.13;84.37;99309.38;684757;28;1105;-52
2021/11/02 01:00:35;;;;;;;6.18;1.92;;;;;;;8.12;85.54;99307.66;683123;28;1139;-51
2021/11/02 01:00:56;;;;;;;7.05;1.75;;;;;;;8.12;84.95;99305.03;680647;28;1397;-51
2021/11/02 01:01:16;;;;;;;6.45;1.75;;;;;;;8.11;85.91;99312.00;682437;28;4459;-54
2021/11/02 01:01:38;;;;;;;5.87;1.90;;;;;;;8.11;85.13;99312.00;683237;28;1060;-52
2021/11/02 01:01:58;;;;;;;6.13;1.70;;;;;;;8.10;86.05;99312.88;680248;28;3047;-50
2021/11/02 01:02:19;;;;;;;8.17;2.03;;;;;;;8.10;85.05;99309.41;681114;28;2273;-53
2021/11/02 01:02:40;;;;;;;4.80;1.80;;;;;;;8.10;85.52;99314.59;680899;28;1050;-53
2021/11/02 01:03:04;;;;;;;6.15;1.90;;;;;;;8.08;84.46;99314.63;683493;28;1297;-55
2021/11/02 01:03:25;;;;;;;5.95;1.90;;;;;;;8.09;85.54;99315.50;683194;28;1087;-50
2021/11/02 01:03:45;;;;;;;5.67;2.00;;;;;;;8.09;85.04;99303.34;684144;28;1064;-51
2021/11/02 01:04:07;;;;;;;5.53;1.97;;;;;;;8.09;85.56;99308.56;684692;28;1140;-51
2021/11/02 01:04:27;;;;;;;4.43;1.80;;;;;;;8.09;84.76;99313.75;683962;28;4830;-53
2021/11/02 01:04:48;;;;;;;6.13;2.00;;;;;;;8.08;85.31;99312.03;683722;28;1113;-51
2021/11/02 01:05:11;;;;;;;5.75;1.90;;;;;;;8.09;85.47;99313.75;683840;28;3367;-51
2021/11/02 01:05:31;;;;;;;6.05;1.95;;;;;;;8.08;85.62;99306.81;684023;28;3549;-51
2021/11/02 01:05:52;;;;;;;5.95;1.92;;;;;;;8.07;85.40;99312.94;683807;28;1410;-50
2021/11/02 01:06:12;;;;;;;5.17;1.90;;;;;;;8.09;84.73;99310.31;684658;28;1080;-52
2021/11/02 01:06:34;;;;;;;5.00;1.80;;;;;;;8.07;85.87;99310.34;684112;28;1534;-51
2021/11/02 01:06:55;;;;;;;6.18;1.90;;;;;;;8.09;86.51;99308.56;680419;28;1823;-54
2021/11/02 01:07:15;;;;;;;5.80;1.80;;;;;;;8.13;85.72;99309.38;679808;28;4527;-52
2021/11/02 01:07:36;;;;;;;5.22;1.63;;;;;;;8.13;84.79;99309.38;679976;28;1163;-52
2021/11/02 01:07:56;;;;;;;4.80;1.80;;;;;;;8.14;84.95;99301.53;680741;28;1797;-52
2021/11/02 01:08:17;;;;;;;6.53;1.90;;;;;;;8.12;85.46;99308.50;681439;28;3383;-53
2021/11/02 01:08:37;;;;;;;7.05;1.75;;;;;;;8.11;85.45;99306.81;682976;28;1098;-52
2021/11/02 01:08:58;;;;;;;5.75;1.98;;;;;;;8.11;85.00;99305.91;683974;28;1345;-51
2021/11/02 01:09:19;;;;;;;6.77;2.10;;;;;;;8.10;85.10;99309.41;681038;28;1345;-54
2021/11/02 01:09:40;;;;;;;6.10;1.83;;;;;;;8.10;85.62;99301.59;681332;28;1191;-50
2021/11/02 01:10:01;;;;;;;4.72;1.70;;;;;;;8.09;86.67;99307.72;681548;28;1167;-50
2021/11/02 01:10:22;;;;;;;6.22;2.20;;;;;;;8.12;85.90;99308.50;681075;28;4448;-50
2021/11/02 01:10:47;;;;;;;6.00;2.47;;;;;;;8.17;85.30;99311.88;678260;29;1982;-51
2021/11/02 01:11:08;;;;;;;4.55;1.85;;;;;;;8.16;85.46;99310.16;679177;28;3215;-51
2021/11/02 01:11:28;;;;;;;5.57;1.70;;;;;;;8.14;85.23;99304.13;677369;29;2644;-53
2021/11/02 01:11:48;;;;;;;4.95;1.85;;;;;;;8.13;85.55;99307.63;677214;28;2457;-55
2021/11/02 01:12:10;;;;;;;5.20;2.03;;;;;;;8.13;84.98;99304.16;677046;29;1379;-50
2021/11/02 01:12:31;;;;;;;6.13;1.90;;;;;;;8.11;85.05;99312.00;679331;28;1395;-50
2021/11/02 01:12:52;;;;;;;5.80;1.70;;;;;;;8.10;85.49;99312.00;680825;28;1171;-54
2021/11/02 01:13:13;;;;;;;5.78;1.90;;;;;;;8.09;85.55;99311.16;680710;28;1204;-53
2021/11/02 01:13:34;;;;;;;6.17;1.93;;;;;;;8.08;85.83;99317.25;684138;28;4722;-50
2021/11/02 01:13:55;;;;;;;5.93;1.67;;;;;;;8.07;85.95;99310.34;681733;28;3577;-50
2021/11/02 01:14:15;;;;;;;7.28;2.08;;;;;;;8.08;85.33;99317.25;684111;28;4356;-53
2021/11/02 01:14:36;;;;;;;6.53;1.83;;;;;;;8.07;85.24;99307.72;680905;28;982;-50
2021/11/02 01:14:56;;;;;;;5.43;1.85;;;;;;;8.06;86.54;99307.72;677164;29;1441;-54
2021/11/02 01:15:21;;;;;;;5.80;2.20;;;;;;;8.00;86.62;99308.69;677269;29;1216;-52
2021/11/02 01:15:42;;;;;;;7.30;2.42;;;;;;;7.97;86.38;99319.16;677204;28;1065;-52
2021/11/02 01:16:03;;;;;;;7.13;2.50;;;;;;;7.95;86.95;99313.97;676030;29;1303;-51
2021/11/02 01:16:25;;;;;;;6.40;2.50;;;;;;;7.95;86.89;99315.72;674872;29;4410;-52
2021/11/02 01:16:45;;;;;;;6.05;2.30;;;;;;;7.95;87.17;99316.59;677810;29;1069;-52
2021/11/02 01:17:06;;;;;;;7.35;2.70;;;;;;;8.08;87.38;99317.25;675417;29;3622;-53
2021/11/02 01:17:26;;;;;;;9.13;3.10;;;;;;;8.22;85.92;99316.16;673029;29;1412;-51
2021/11/02 01:17:49;;;;;;;7.88;2.78;;;;;;;8.24;85.69;99314.38;675978;29;1350;-50
2021/11/02 01:18:09;;;;;;;7.53;2.50;;;;;;;8.21;85.14;99319.63;679137;28;1061;-51
2021/11/02 01:18:30;;;;;;;7.32;2.45;;;;;;;8.18;85.00;99317.94;677088;29;1308;-50
2021/11/02 01:18:52;;;;;;;7.30;2.20;;;;;;;8.17;84.69;99321.47;678041;28;1257;-50
2021/11/02 01:19:13;;;;;;;7.07;2.35;;;;;;;8.15;84.71;99311.03;677649;28;1513;-51
2021/11/02 01:19:34;;;;;;;6.85;2.13;;;;;;;8.13;86.10;99311.97;678840;28;4499;-54
2021/11/02 01:19:55;;;;;;;6.53;2.22;;;;;;;8.12;85.59;99312.84;675434;29;1860;-52
2021/11/02 01:20:16;;;;;;;5.37;2.30;;;;;;;8.11;85.38;99312.00;676245;29;3450;-51
2021/11/02 01:20:38;;;;;;;5.25;1.90;;;;;;;8.12;85.91;99318.06;674865;29;1408;-51
2021/11/02 01:20:59;;;;;;;5.53;2.13;;;;;;;8.11;85.92;99311.13;676247;29;1102;-52
2021/11/02 01:21:21;;;;;;;6.63;2.15;;;;;;;8.16;86.04;99315.38;678435;28;1124;-53
2021/11/02 01:21:41;;;;;;;8.27;1.92;;;;;;;8.18;85.44;99316.22;680540;28;1238;-52
2021/11/02 01:22:03;;;;;;;5.93;1.90;;;;;;;8.19;85.05;99310.09;681508;28;1748;-50
2021/11/02 01:22:23;;;;;;;6.60;1.85;;;;;;;8.17;84.69;99322.31;678593;28;4629;-51
2021/11/02 01:22:45;;;;;;;6.82;1.70;;;;;;;8.16;84.89;99317.97;680991;28;3095;-51
2021/11/02 01:23:07;;;;;;;5.18;1.88;;;;;;;8.13;85.06;99312.81;680185;28;4425;-52
2021/11/02 01:23:28;;;;;;;4.43;1.67;;;;;;;8.12;85.19;99310.25;678957;28;1415;-52
2021/11/02 01:23:49;;;;;;;6.13;1.80;;;;;;;8.12;84.72;99310.25;678806;28;1438;-54
2021/11/02 01:24:10;;;;;;;6.50;1.90;;;;;;;8.10;85.64;99315.50;679925;28;1279;-51
2021/11/02 01:24:30;;;;;;;5.77;1.80;;;;;;;8.09;84.81;99313.75;681644;28;1278;-51
2021/11/02 01:24:51;;;;;;;5.03;1.80;;;;;;;8.09;85.02;99307.72;675671;29;1311;-51
2021/11/02 01:25:16;;;;;;;6.13;1.92;;;;;;;8.09;84.45;99316.38;678601;29;1503;-50
2021/11/02 01:25:36;;;;;;;4.50;1.77;;;;;;;8.09;85.30;99313.75;674639;29;6323;-51
2021/11/02 01:25:56;;;;;;;5.20;1.80;;;;;;;8.08;85.18;99306.81;677731;29;3130;-52
2021/11/02 01:26:17;;;;;;;5.40;1.80;;;;;;;8.07;85.40;99312.94;675986;29;3743;-50
2021/11/02 01:26:37;;;;;;;6.70;1.90;;;;;;;8.06;85.59;99308.59;675072;29;1470;-55
2021/11/02 01:26:58;;;;;;;5.22;1.80;;;;;;;8.05;85.40;99309.47;676229;29;1615;-51
2021/11/02 01:27:21;;;;;;;5.50;1.90;;;;;;;8.04;86.39;99307.75;677122;29;1312;-53
2021/11/02 01:27:42;;;;;;;6.30;1.73;;;;;;;8.04;87.05;99310.38;675858;29;1280;-52
2021/11/02 01:28:07;;;;;;;6.45;1.95;;;;;;;8.04;86.99;99310.38;679296;28;1441;-51
2021/11/02 01:28:34;;;;;;;7.70;2.38;;;;;;;8.01;86.61;99308.66;675255;29;4445;-51
2021/11/02 01:28:54;;;;;;;8.02;2.40;;;;;;;8.01;86.52;99307.81;675912;29;3206;-54
2021/11/02 01:29:16;;;;;;;6.37;2.17;;;;;;;8.03;86.57;99306.06;675302;29;2246;-51
2021/11/02 01:29:36;;;;;;;6.95;2.30;;;;;;;8.02;86.65;99306.94;677073;29;1036;-53
2021/11/02 01:29:57;;;;;;;7.72;2.58;;;;;;;8.00;86.61;99304.38;677101;29;1216;-50
2021/11/02 01:30:18;;;;;;;7.82;2.63;;;;;;;7.99;85.96;99307.84;677614;29;1128;-53
2021/11/02 01:30:39;;;;;;;7.75;2.53;;;;;;;7.99;86.64;99305.25;679383;28;1993;-54
2021/11/02 01:30:59;;;;;;;9.15;2.85;;;;;;;8.00;86.12;99303.50;681862;28;1249;-51
2021/11/02 01:31:19;;;;;;;5.73;2.17;;;;;;;7.99;85.58;99300.03;678653;28;4550;-52
2021/11/02 01:31:40;;;;;;;5.75;2.17;;;;;;;7.98;86.35;99307.88;677495;28;3558;-52
2021/11/02 01:32:01;;;;;;;4.80;2.00;;;;;;;7.99;86.12;99310.44;675994;28;3512;-52
2021/11/02 01:32:29;;;;;;;5.43;2.05;;;;;;;7.97;87.42;99309.59;677454;28;1246;-54
2021/11/02 01:32:49;;;;;;;7.25;2.40;;;;;;;7.95;88.26;99305.31;678012;28;1061;-52
2021/11/02 01:33:11;;;;;;;7.60;2.20;;;;;;;7.95;87.10;99310.53;677131;28;1348;-53
2021/11/02 01:33:34;;;;;;;6.82;2.20;;;;;;;7.95;87.10;99310.53;679980;28;1124;-50
2021/11/02 01:33:54;;;;;;;6.60;2.30;;;;;;;7.95;86.42;99307.94;682445;28;1411;-50
2021/11/02 01:34:15;;;;;;;5.97;2.00;;;;;;;7.96;85.98;99315.72;680956;28;4750;-51
2021/11/02 01:34:36;;;;;;;7.32;2.17;;;;;;;7.96;86.89;99307.91;678419;29;2430;-54
2021/11/02 01:34:57;;;;;;;7.25;2.20;;;;;;;7.98;85.75;99306.13;678749;28;2208;-52
2021/11/02 01:35:18;;;;;;;5.85;2.00;;;;;;;7.97;86.25;99312.19;681868;28;1459;-53
2021/11/02 01:35:47;;;;;;;5.43;1.80;;;;;;;8.00;86.44;99306.09;679118;28;1245;-51
2021/11/02 01:36:09;;;;;;;5.70;1.90;;;;;;;8.07;85.85;99302.53;679247;28;1191;-53
2021/11/02 01:36:30;;;;;;;6.65;2.10;;;;;;;8.07;86.04;99307.72;678232;28;1432;-50
2021/11/02 01:36:54;;;;;;;6.03;1.90;;;;;;;8.07;85.37;99299.94;677318;29;1289;-52
2021/11/02 01:37:15;;;;;;;6.55;2.00;;;;;;;8.06;86.99;99302.53;679250;28;4469;-51
2021/11/02 01:37:39;;;;;;;5.37;2.00;;;;;;;8.03;86.68;99298.25;679855;28;3237;-52
2021/11/02 01:38:06;;;;;;;5.95;2.03;;;;;;;8.01;86.22;99297.41;677152;28;3609;-54
2021/11/02 01:38:27;;;;;;;6.38;2.10;;;;;;;8.00;86.00;99298.28;675802;29;1180;-51
2021/11/02 01:38:56;;;;;;;6.00;2.00;;;;;;;7.99;86.30;99297.44;673851;29;1579;-51
2021/11/02 01:39:16;;;;;;;6.15;1.95;;;;;;;7.98;86.15;99311.31;675859;29;1076;-55
2021/11/02 01:39:37;;;;;;;5.97;1.85;;;;;;;7.99;84.97;99307.84;675790;29;1325;-52
2021/11/02 01:39:59;;;;;;;6.80;1.80;;;;;;;7.98;86.48;99302.66;677424;29;1073;-54
2021/11/02 01:40:20;;;;;;;7.30;2.30;;;;;;;8.02;85.65;99299.13;677304;28;4635;-54
2021/11/02 01:40:40;;;;;;;6.20;1.92;;;;;;;8.05;85.51;99298.22;679017;28;1892;-53
2021/11/02 01:41:02;;;;;;;6.30;1.90;;;;;;;8.05;86.14;99304.28;678037;28;3886;-51
2021/11/02 01:41:25;;;;;;;6.75;1.92;;;;;;;8.05;85.52;99299.06;676016;29;1332;-52
2021/11/02 01:41:49;;;;;;;5.50;1.90;;;;;;;8.05;85.58;99301.69;674730;29;1342;-51
2021/11/02 01:42:11;;;;;;;5.35;1.70;;;;;;;8.05;85.09;99300.84;676001;29;1426;-53
2021/11/02 01:42:32;;;;;;;5.77;1.90;;;;;;;8.05;84.88;99304.28;674890;29;3520;-52
2021/11/02 01:42:54;;;;;;;5.05;2.03;;;;;;;8.06;84.66;99303.41;675290;29;1461;-52
2021/11/02 01:43:18;;;;;;;4.28;1.73;;;;;;;8.07;86.22;99299.03;676064;29;4650;-51
2021/11/02 01:43:39;;;;;;;5.45;1.70;;;;;;;8.05;84.94;99300.84;677314;29;3150;-53
2021/11/02 01:44:03;;;;;;;6.13;1.92;;;;;;;8.14;85.85;99305.88;675532;29;3681;-50
2021/11/02 01:44:23;;;;;;;5.68;2.20;;;;;;;8.26;84.23;99299.59;675451;29;1440;-55
2021/11/02 01:44:44;;;;;;;5.80;1.98;;;;;;;8.26;84.23;99304.81;676954;29;1232;-50
2021/11/02 01:45:09;;;;;;;6.55;1.77;;;;;;;8.22;83.91;99297.94;676344;29;1245;-50
2021/11/02 01:45:30;;;;;;;6.68;2.05;;;;;;;8.18;85.02;99295.41;678600;28;1078;-53
2021/11/02 01:45:55;;;;;;;5.85;1.77;;;;;;;8.14;84.96;99301.53;679852;28;1250;-52
2021/11/02 01:46:24;;;;;;;4.95;1.80;;;;;;;8.12;85.26;99302.44;679969;28;4531;-51
2021/11/02 01:46:45;;;;;;;5.05;1.90;;;;;;;8.10;85.56;99304.19;677502;29;3175;-55